sensor_id;sensor_type;location;lat;lon;timestamp;P1;durP1;ratioP1;P2;durP2;ratioP2
11771;SDS011;12556;55.748;13.194;2022-08-11T00:01:07;4.20;;;3.23;;
11771;SDS011;12556;55.748;13.194;2022-08-11T00:03:42;6.13;;;3.20;;
11771;SDS011;12556;55.748;13.194;2022-08-11T00:06:12;4.13;;;2.97;;
11771;SDS011;12556;55.748;13.194;2022-08-11T00:08:40;6.23;;;3.67;;
11771;SDS011;12556;55.748;13.194;2022-08-11T00:11:08;5.43;;;3.50;;
11771;SDS011;12556;55.748;13.194;2022-08-11T00:13:38;6.20;;;3.57;;
11771;SDS011;12556;55.748;13.194;2022-08-11T00:16:10;4.23;;;3.73;;
11771;SDS011;12556;55.748;13.194;2022-08-11T00:18:39;4.87;;;3.63;;
11771;SDS011;12556;55.748;13.194;2022-08-11T00:21:09;8.70;;;3.80;;
11771;SDS011;12556;55.748;13.194;2022-08-11T00:23:41;8.17;;;4.47;;
11771;SDS011;12556;55.748;13.194;2022-08-11T00:26:09;7.33;;;4.43;;
11771;SDS011;12556;55.748;13.194;2022-08-11T00:28:38;5.00;;;4.50;;
11771;SDS011;12556;55.748;13.194;2022-08-11T00:31:07;6.17;;;4.30;;
11771;SDS011;12556;55.748;13.194;2022-08-11T00:33:37;10.73;;;5.07;;
11771;SDS011;12556;55.748;13.194;2022-08-11T00:36:07;7.23;;;4.53;;
11771;SDS011;12556;55.748;13.194;2022-08-11T00:38:38;8.83;;;5.00;;
11771;SDS011;12556;55.748;13.194;2022-08-11T00:41:17;8.47;;;5.63;;
11771;SDS011;12556;55.748;13.194;2022-08-11T00:44:06;7.17;;;5.23;;
11771;SDS011;12556;55.748;13.194;2022-08-11T00:46:50;6.90;;;5.47;;
11771;SDS011;12556;55.748;13.194;2022-08-11T00:49:29;4.40;;;4.00;;
11771;SDS011;12556;55.748;13.194;2022-08-11T00:52:12;9.63;;;5.27;;
11771;SDS011;12556;55.748;13.194;2022-08-11T00:54:59;8.70;;;5.73;;
11771;SDS011;12556;55.748;13.194;2022-08-11T00:57:38;8.23;;;5.93;;
11771;SDS011;12556;55.748;13.194;2022-08-11T01:00:42;7.63;;;5.73;;
11771;SDS011;12556;55.748;13.194;2022-08-11T01:03:31;7.20;;;5.03;;
11771;SDS011;12556;55.748;13.194;2022-08-11T01:06:36;6.57;;;4.93;;
11771;SDS011;12556;55.748;13.194;2022-08-11T01:09:19;7.80;;;5.50;;
11771;SDS011;12556;55.748;13.194;2022-08-11T01:12:10;7.73;;;6.33;;
11771;SDS011;12556;55.748;13.194;2022-08-11T01:18:15;8.00;;;6.90;;
11771;SDS011;12556;55.748;13.194;2022-08-11T01:21:15;7.13;;;6.50;;
11771;SDS011;12556;55.748;13.194;2022-08-11T01:27:18;9.17;;;7.23;;
11771;SDS011;12556;55.748;13.194;2022-08-11T01:30:04;10.47;;;7.00;;
11771;SDS011;12556;55.748;13.194;2022-08-11T01:36:20;8.87;;;6.93;;
11771;SDS011;12556;55.748;13.194;2022-08-11T01:42:31;7.17;;;6.47;;
11771;SDS011;12556;55.748;13.194;2022-08-11T01:45:41;7.77;;;6.83;;
11771;SDS011;12556;55.748;13.194;2022-08-11T01:48:18;7.97;;;6.77;;
11771;SDS011;12556;55.748;13.194;2022-08-11T01:51:04;9.33;;;7.23;;
11771;SDS011;12556;55.748;13.194;2022-08-11T01:53:48;9.53;;;7.50;;
11771;SDS011;12556;55.748;13.194;2022-08-11T01:56:35;12.67;;;7.47;;
11771;SDS011;12556;55.748;13.194;2022-08-11T01:59:14;9.87;;;6.93;;
11771;SDS011;12556;55.748;13.194;2022-08-11T02:04:46;7.83;;;6.97;;
11771;SDS011;12556;55.748;13.194;2022-08-11T02:07:26;7.63;;;6.83;;
11771;SDS011;12556;55.748;13.194;2022-08-11T02:10:01;8.93;;;6.40;;
11771;SDS011;12556;55.748;13.194;2022-08-11T02:12:52;6.90;;;5.57;;
11771;SDS011;12556;55.748;13.194;2022-08-11T02:15:24;7.17;;;5.83;;
11771;SDS011;12556;55.748;13.194;2022-08-11T02:18:03;5.97;;;5.17;;
11771;SDS011;12556;55.748;13.194;2022-08-11T02:20:40;7.40;;;5.20;;
11771;SDS011;12556;55.748;13.194;2022-08-11T02:23:30;5.87;;;4.37;;
11771;SDS011;12556;55.748;13.194;2022-08-11T02:26:08;5.43;;;4.93;;
11771;SDS011;12556;55.748;13.194;2022-08-11T02:28:48;6.00;;;4.43;;
11771;SDS011;12556;55.748;13.194;2022-08-11T02:31:24;5.87;;;4.77;;
11771;SDS011;12556;55.748;13.194;2022-08-11T02:34:21;5.97;;;5.20;;
11771;SDS011;12556;55.748;13.194;2022-08-11T02:36:58;5.77;;;5.17;;
11771;SDS011;12556;55.748;13.194;2022-08-11T02:39:42;5.43;;;4.23;;
11771;SDS011;12556;55.748;13.194;2022-08-11T02:42:19;5.07;;;4.57;;
11771;SDS011;12556;55.748;13.194;2022-08-11T02:44:53;7.47;;;4.43;;
11771;SDS011;12556;55.748;13.194;2022-08-11T02:47:34;5.63;;;4.77;;
11771;SDS011;12556;55.748;13.194;2022-08-11T02:50:35;4.77;;;4.27;;
11771;SDS011;12556;55.748;13.194;2022-08-11T02:53:07;5.17;;;4.47;;
11771;SDS011;12556;55.748;13.194;2022-08-11T02:55:40;6.60;;;4.97;;
11771;SDS011;12556;55.748;13.194;2022-08-11T02:58:21;5.73;;;4.43;;
11771;SDS011;12556;55.748;13.194;2022-08-11T03:01:02;6.20;;;4.50;;
11771;SDS011;12556;55.748;13.194;2022-08-11T03:03:36;5.00;;;4.60;;
11771;SDS011;12556;55.748;13.194;2022-08-11T03:06:18;5.20;;;4.70;;
11771;SDS011;12556;55.748;13.194;2022-08-11T03:08:57;8.97;;;5.47;;
11771;SDS011;12556;55.748;13.194;2022-08-11T03:11:38;9.17;;;7.37;;
11771;SDS011;12556;55.748;13.194;2022-08-11T03:14:34;7.97;;;7.13;;
11771;SDS011;12556;55.748;13.194;2022-08-11T03:17:29;8.37;;;6.40;;
11771;SDS011;12556;55.748;13.194;2022-08-11T03:20:05;9.80;;;7.93;;
11771;SDS011;12556;55.748;13.194;2022-08-11T03:22:45;8.33;;;7.40;;
11771;SDS011;12556;55.748;13.194;2022-08-11T03:25:19;9.40;;;7.77;;
11771;SDS011;12556;55.748;13.194;2022-08-11T03:27:57;9.33;;;8.33;;
11771;SDS011;12556;55.748;13.194;2022-08-11T03:30:31;13.03;;;8.70;;
11771;SDS011;12556;55.748;13.194;2022-08-11T03:33:12;13.43;;;8.90;;
11771;SDS011;12556;55.748;13.194;2022-08-11T03:36:09;9.40;;;7.73;;
11771;SDS011;12556;55.748;13.194;2022-08-11T03:38:47;8.60;;;7.23;;
11771;SDS011;12556;55.748;13.194;2022-08-11T03:41:28;7.40;;;6.43;;
11771;SDS011;12556;55.748;13.194;2022-08-11T03:44:09;11.40;;;7.00;;
11771;SDS011;12556;55.748;13.194;2022-08-11T03:47:07;7.77;;;6.90;;
11771;SDS011;12556;55.748;13.194;2022-08-11T03:49:52;11.80;;;6.63;;
11771;SDS011;12556;55.748;13.194;2022-08-11T03:52:28;13.63;;;6.97;;
11771;SDS011;12556;55.748;13.194;2022-08-11T03:55:13;9.93;;;7.30;;
11771;SDS011;12556;55.748;13.194;2022-08-11T03:58:02;9.33;;;6.60;;
11771;SDS011;12556;55.748;13.194;2022-08-11T04:00:49;8.77;;;7.87;;
11771;SDS011;12556;55.748;13.194;2022-08-11T04:03:43;8.13;;;7.30;;
11771;SDS011;12556;55.748;13.194;2022-08-11T04:06:47;11.77;;;8.07;;
11771;SDS011;12556;55.748;13.194;2022-08-11T04:12:46;9.47;;;8.23;;
11771;SDS011;12556;55.748;13.194;2022-08-11T04:19:07;11.60;;;8.57;;
11771;SDS011;12556;55.748;13.194;2022-08-11T04:22:14;13.10;;;9.23;;
11771;SDS011;12556;55.748;13.194;2022-08-11T04:30:51;14.50;;;9.73;;
11771;SDS011;12556;55.748;13.194;2022-08-11T04:33:42;12.07;;;10.50;;
11771;SDS011;12556;55.748;13.194;2022-08-11T04:36:36;13.13;;;10.30;;
11771;SDS011;12556;55.748;13.194;2022-08-11T04:39:45;12.53;;;10.50;;
11771;SDS011;12556;55.748;13.194;2022-08-11T04:48:46;12.67;;;9.73;;
11771;SDS011;12556;55.748;13.194;2022-08-11T04:51:47;13.23;;;9.20;;
11771;SDS011;12556;55.748;13.194;2022-08-11T04:54:58;12.40;;;9.63;;
11771;SDS011;12556;55.748;13.194;2022-08-11T04:58:10;11.10;;;8.47;;
11771;SDS011;12556;55.748;13.194;2022-08-11T05:01:04;13.00;;;8.90;;
11771;SDS011;12556;55.748;13.194;2022-08-11T05:04:15;11.33;;;8.50;;
11771;SDS011;12556;55.748;13.194;2022-08-11T05:07:29;11.83;;;8.33;;
11771;SDS011;12556;55.748;13.194;2022-08-11T05:10:28;9.67;;;8.23;;
11771;SDS011;12556;55.748;13.194;2022-08-11T05:13:11;9.70;;;7.90;;
11771;SDS011;12556;55.748;13.194;2022-08-11T05:16:09;11.10;;;7.47;;
11771;SDS011;12556;55.748;13.194;2022-08-11T05:19:08;8.83;;;6.57;;
11771;SDS011;12556;55.748;13.194;2022-08-11T05:21:59;7.10;;;6.40;;
11771;SDS011;12556;55.748;13.194;2022-08-11T05:24:47;7.50;;;6.53;;
11771;SDS011;12556;55.748;13.194;2022-08-11T05:27:35;9.97;;;6.30;;
11771;SDS011;12556;55.748;13.194;2022-08-11T05:30:25;6.60;;;5.87;;
11771;SDS011;12556;55.748;13.194;2022-08-11T05:33:12;12.37;;;6.40;;
11771;SDS011;12556;55.748;13.194;2022-08-11T05:36:04;7.37;;;5.40;;
11771;SDS011;12556;55.748;13.194;2022-08-11T05:38:37;7.93;;;5.70;;
11771;SDS011;12556;55.748;13.194;2022-08-11T05:41:24;6.63;;;5.60;;
11771;SDS011;12556;55.748;13.194;2022-08-11T05:44:16;7.73;;;5.00;;
11771;SDS011;12556;55.748;13.194;2022-08-11T05:47:02;6.93;;;4.93;;
11771;SDS011;12556;55.748;13.194;2022-08-11T05:49:48;5.27;;;4.27;;
11771;SDS011;12556;55.748;13.194;2022-08-11T05:52:33;6.90;;;4.20;;
11771;SDS011;12556;55.748;13.194;2022-08-11T05:55:19;7.10;;;4.33;;
11771;SDS011;12556;55.748;13.194;2022-08-11T05:58:06;6.87;;;4.33;;
11771;SDS011;12556;55.748;13.194;2022-08-11T06:00:40;5.17;;;3.50;;
11771;SDS011;12556;55.748;13.194;2022-08-11T06:03:08;4.90;;;3.33;;
11771;SDS011;12556;55.748;13.194;2022-08-11T06:05:36;4.27;;;3.40;;
11771;SDS011;12556;55.748;13.194;2022-08-11T06:08:05;3.87;;;3.50;;
11771;SDS011;12556;55.748;13.194;2022-08-11T06:10:35;8.53;;;3.37;;
11771;SDS011;12556;55.748;13.194;2022-08-11T06:13:06;3.67;;;3.03;;
11771;SDS011;12556;55.748;13.194;2022-08-11T06:15:42;4.73;;;2.57;;
11771;SDS011;12556;55.748;13.194;2022-08-11T06:18:10;4.10;;;2.80;;
11771;SDS011;12556;55.748;13.194;2022-08-11T06:20:44;8.37;;;3.10;;
11771;SDS011;12556;55.748;13.194;2022-08-11T06:23:12;3.08;;;2.88;;
11771;SDS011;12556;55.748;13.194;2022-08-11T06:25:42;4.72;;;2.80;;
11771;SDS011;12556;55.748;13.194;2022-08-11T06:28:11;10.57;;;2.88;;
11771;SDS011;12556;55.748;13.194;2022-08-11T06:30:43;3.45;;;2.88;;
11771;SDS011;12556;55.748;13.194;2022-08-11T06:33:10;5.60;;;3.20;;
11771;SDS011;12556;55.748;13.194;2022-08-11T06:35:47;6.55;;;2.92;;
11771;SDS011;12556;55.748;13.194;2022-08-11T06:38:27;3.17;;;2.63;;
11771;SDS011;12556;55.748;13.194;2022-08-11T06:41:19;4.63;;;2.67;;
11771;SDS011;12556;55.748;13.194;2022-08-11T06:44:06;5.70;;;2.70;;
11771;SDS011;12556;55.748;13.194;2022-08-11T06:46:42;4.60;;;2.88;;
11771;SDS011;12556;55.748;13.194;2022-08-11T06:49:12;3.40;;;2.88;;
11771;SDS011;12556;55.748;13.194;2022-08-11T06:51:54;5.63;;;3.08;;
11771;SDS011;12556;55.748;13.194;2022-08-11T06:54:21;5.63;;;2.60;;
11771;SDS011;12556;55.748;13.194;2022-08-11T06:56:49;7.97;;;2.78;;
11771;SDS011;12556;55.748;13.194;2022-08-11T06:59:36;3.05;;;2.28;;
11771;SDS011;12556;55.748;13.194;2022-08-11T07:02:22;5.03;;;2.25;;
11771;SDS011;12556;55.748;13.194;2022-08-11T07:04:55;7.00;;;2.40;;
11771;SDS011;12556;55.748;13.194;2022-08-11T07:07:41;6.00;;;2.80;;
11771;SDS011;12556;55.748;13.194;2022-08-11T07:10:56;6.50;;;2.63;;
11771;SDS011;12556;55.748;13.194;2022-08-11T07:13:58;3.83;;;2.13;;
11771;SDS011;12556;55.748;13.194;2022-08-11T07:16:47;5.30;;;2.50;;
11771;SDS011;12556;55.748;13.194;2022-08-11T07:19:16;10.80;;;2.65;;
11771;SDS011;12556;55.748;13.194;2022-08-11T07:22:06;3.17;;;2.20;;
11771;SDS011;12556;55.748;13.194;2022-08-11T07:24:54;3.85;;;2.60;;
11771;SDS011;12556;55.748;13.194;2022-08-11T07:27:42;4.38;;;2.35;;
11771;SDS011;12556;55.748;13.194;2022-08-11T07:30:28;2.97;;;2.33;;
11771;SDS011;12556;55.748;13.194;2022-08-11T07:33:00;3.45;;;2.20;;
11771;SDS011;12556;55.748;13.194;2022-08-11T07:35:30;3.08;;;2.17;;
11771;SDS011;12556;55.748;13.194;2022-08-11T07:38:00;2.92;;;2.50;;
11771;SDS011;12556;55.748;13.194;2022-08-11T07:40:30;2.30;;;2.10;;
11771;SDS011;12556;55.748;13.194;2022-08-11T07:42:58;3.65;;;2.17;;
11771;SDS011;12556;55.748;13.194;2022-08-11T07:45:25;6.63;;;2.53;;
11771;SDS011;12556;55.748;13.194;2022-08-11T07:48:12;4.38;;;2.22;;
11771;SDS011;12556;55.748;13.194;2022-08-11T07:50:58;5.63;;;2.70;;
11771;SDS011;12556;55.748;13.194;2022-08-11T07:53:44;4.35;;;2.53;;
11771;SDS011;12556;55.748;13.194;2022-08-11T07:56:12;2.40;;;2.20;;
11771;SDS011;12556;55.748;13.194;2022-08-11T07:58:40;5.40;;;2.33;;
11771;SDS011;12556;55.748;13.194;2022-08-11T08:01:25;3.28;;;2.45;;
11771;SDS011;12556;55.748;13.194;2022-08-11T08:04:15;4.00;;;2.47;;
11771;SDS011;12556;55.748;13.194;2022-08-11T08:07:01;4.68;;;2.20;;
11771;SDS011;12556;55.748;13.194;2022-08-11T08:09:47;3.47;;;2.28;;
11771;SDS011;12556;55.748;13.194;2022-08-11T08:12:32;3.50;;;2.25;;
11771;SDS011;12556;55.748;13.194;2022-08-11T08:15:17;4.18;;;2.30;;
11771;SDS011;12556;55.748;13.194;2022-08-11T08:18:04;4.60;;;2.80;;
11771;SDS011;12556;55.748;13.194;2022-08-11T08:20:36;3.80;;;2.30;;
11771;SDS011;12556;55.748;13.194;2022-08-11T08:23:05;6.30;;;2.42;;
11771;SDS011;12556;55.748;13.194;2022-08-11T08:25:34;3.40;;;2.22;;
11771;SDS011;12556;55.748;13.194;2022-08-11T08:28:04;7.43;;;2.40;;
11771;SDS011;12556;55.748;13.194;2022-08-11T08:30:32;5.07;;;2.50;;
11771;SDS011;12556;55.748;13.194;2022-08-11T08:33:17;2.22;;;2.03;;
11771;SDS011;12556;55.748;13.194;2022-08-11T08:35:48;4.53;;;1.88;;
11771;SDS011;12556;55.748;13.194;2022-08-11T08:38:35;3.33;;;2.28;;
11771;SDS011;12556;55.748;13.194;2022-08-11T08:41:03;2.13;;;1.80;;
11771;SDS011;12556;55.748;13.194;2022-08-11T08:43:30;5.88;;;2.30;;
11771;SDS011;12556;55.748;13.194;2022-08-11T08:45:58;5.65;;;2.00;;
11771;SDS011;12556;55.748;13.194;2022-08-11T08:48:26;5.22;;;2.30;;
11771;SDS011;12556;55.748;13.194;2022-08-11T08:51:00;5.53;;;1.95;;
11771;SDS011;12556;55.748;13.194;2022-08-11T08:53:47;4.80;;;2.08;;
11771;SDS011;12556;55.748;13.194;2022-08-11T08:56:15;4.63;;;1.92;;
11771;SDS011;12556;55.748;13.194;2022-08-11T08:58:44;5.10;;;2.25;;
11771;SDS011;12556;55.748;13.194;2022-08-11T09:01:14;3.78;;;2.10;;
11771;SDS011;12556;55.748;13.194;2022-08-11T09:03:45;3.90;;;2.00;;
11771;SDS011;12556;55.748;13.194;2022-08-11T09:06:13;2.05;;;1.85;;
11771;SDS011;12556;55.748;13.194;2022-08-11T09:08:42;2.95;;;2.28;;
11771;SDS011;12556;55.748;13.194;2022-08-11T09:11:10;2.63;;;1.80;;
11771;SDS011;12556;55.748;13.194;2022-08-11T09:13:56;3.38;;;1.88;;
11771;SDS011;12556;55.748;13.194;2022-08-11T09:16:23;10.63;;;1.98;;
11771;SDS011;12556;55.748;13.194;2022-08-11T09:18:50;2.83;;;1.67;;
11771;SDS011;12556;55.748;13.194;2022-08-11T09:21:19;2.60;;;1.83;;
11771;SDS011;12556;55.748;13.194;2022-08-11T09:23:47;2.30;;;2.10;;
11771;SDS011;12556;55.748;13.194;2022-08-11T09:26:33;7.35;;;1.98;;
11771;SDS011;12556;55.748;13.194;2022-08-11T09:29:18;4.75;;;1.80;;
11771;SDS011;12556;55.748;13.194;2022-08-11T09:31:47;3.35;;;1.75;;
11771;SDS011;12556;55.748;13.194;2022-08-11T09:34:14;3.45;;;1.75;;
11771;SDS011;12556;55.748;13.194;2022-08-11T09:36:43;5.90;;;1.88;;
11771;SDS011;12556;55.748;13.194;2022-08-11T09:39:28;4.03;;;2.33;;
11771;SDS011;12556;55.748;13.194;2022-08-11T09:42:14;3.67;;;1.73;;
11771;SDS011;12556;55.748;13.194;2022-08-11T09:44:42;1.52;;;1.42;;
11771;SDS011;12556;55.748;13.194;2022-08-11T09:47:17;2.72;;;1.55;;
11771;SDS011;12556;55.748;13.194;2022-08-11T09:49:48;1.80;;;1.70;;
11771;SDS011;12556;55.748;13.194;2022-08-11T09:52:20;2.50;;;1.70;;
11771;SDS011;12556;55.748;13.194;2022-08-11T09:54:48;3.42;;;1.80;;
11771;SDS011;12556;55.748;13.194;2022-08-11T09:57:17;1.60;;;1.48;;
11771;SDS011;12556;55.748;13.194;2022-08-11T10:00:04;2.65;;;1.55;;
11771;SDS011;12556;55.748;13.194;2022-08-11T10:02:33;3.60;;;1.90;;
11771;SDS011;12556;55.748;13.194;2022-08-11T10:05:05;2.92;;;1.73;;
11771;SDS011;12556;55.748;13.194;2022-08-11T10:07:52;4.50;;;1.67;;
11771;SDS011;12556;55.748;13.194;2022-08-11T10:10:19;2.70;;;1.85;;
11771;SDS011;12556;55.748;13.194;2022-08-11T10:12:48;1.90;;;1.40;;
11771;SDS011;12556;55.748;13.194;2022-08-11T10:15:19;3.10;;;1.55;;
11771;SDS011;12556;55.748;13.194;2022-08-11T10:17:59;4.65;;;1.77;;
11771;SDS011;12556;55.748;13.194;2022-08-11T10:20:47;2.30;;;1.65;;
11771;SDS011;12556;55.748;13.194;2022-08-11T10:23:17;4.65;;;1.52;;
11771;SDS011;12556;55.748;13.194;2022-08-11T10:26:03;2.70;;;1.65;;
11771;SDS011;12556;55.748;13.194;2022-08-11T10:28:49;4.05;;;1.60;;
11771;SDS011;12556;55.748;13.194;2022-08-11T10:31:18;1.98;;;1.50;;
11771;SDS011;12556;55.748;13.194;2022-08-11T10:34:03;5.90;;;1.60;;
11771;SDS011;12556;55.748;13.194;2022-08-11T10:36:31;3.40;;;1.63;;
11771;SDS011;12556;55.748;13.194;2022-08-11T10:39:07;2.33;;;1.60;;
11771;SDS011;12556;55.748;13.194;2022-08-11T10:41:36;1.58;;;1.30;;
11771;SDS011;12556;55.748;13.194;2022-08-11T10:44:22;6.40;;;2.28;;
11771;SDS011;12556;55.748;13.194;2022-08-11T10:46:49;3.35;;;1.63;;
11771;SDS011;12556;55.748;13.194;2022-08-11T10:49:35;3.17;;;1.60;;
11771;SDS011;12556;55.748;13.194;2022-08-11T10:52:03;2.65;;;1.50;;
11771;SDS011;12556;55.748;13.194;2022-08-11T10:54:48;2.17;;;1.63;;
11771;SDS011;12556;55.748;13.194;2022-08-11T10:57:33;4.25;;;1.92;;
11771;SDS011;12556;55.748;13.194;2022-08-11T11:00:18;2.45;;;1.40;;
11771;SDS011;12556;55.748;13.194;2022-08-11T11:02:45;4.07;;;1.58;;
11771;SDS011;12556;55.748;13.194;2022-08-11T11:05:14;6.30;;;1.80;;
11771;SDS011;12556;55.748;13.194;2022-08-11T11:07:49;2.78;;;1.45;;
11771;SDS011;12556;55.748;13.194;2022-08-11T11:10:21;3.65;;;1.40;;
11771;SDS011;12556;55.748;13.194;2022-08-11T11:12:50;2.17;;;1.90;;
11771;SDS011;12556;55.748;13.194;2022-08-11T11:15:37;1.20;;;1.20;;
11771;SDS011;12556;55.748;13.194;2022-08-11T11:18:26;1.45;;;1.30;;
11771;SDS011;12556;55.748;13.194;2022-08-11T11:21:02;5.53;;;1.52;;
11771;SDS011;12556;55.748;13.194;2022-08-11T11:23:32;2.88;;;1.83;;
11771;SDS011;12556;55.748;13.194;2022-08-11T11:26:19;3.22;;;1.80;;
11771;SDS011;12556;55.748;13.194;2022-08-11T11:32:13;3.42;;;1.40;;
11771;SDS011;12556;55.748;13.194;2022-08-11T11:34:50;1.90;;;1.67;;
11771;SDS011;12556;55.748;13.194;2022-08-11T11:37:44;4.60;;;1.52;;
11771;SDS011;12556;55.748;13.194;2022-08-11T11:40:14;2.90;;;1.48;;
11771;SDS011;12556;55.748;13.194;2022-08-11T11:42:47;1.67;;;1.50;;
11771;SDS011;12556;55.748;13.194;2022-08-11T11:45:15;1.98;;;1.30;;
11771;SDS011;12556;55.748;13.194;2022-08-11T11:47:44;1.73;;;1.63;;
11771;SDS011;12556;55.748;13.194;2022-08-11T11:50:21;1.92;;;1.65;;
11771;SDS011;12556;55.748;13.194;2022-08-11T11:52:50;1.92;;;1.50;;
11771;SDS011;12556;55.748;13.194;2022-08-11T11:55:19;1.35;;;1.25;;
11771;SDS011;12556;55.748;13.194;2022-08-11T11:57:49;4.72;;;1.48;;
11771;SDS011;12556;55.748;13.194;2022-08-11T12:00:35;1.38;;;1.25;;
11771;SDS011;12556;55.748;13.194;2022-08-11T12:03:19;4.75;;;1.52;;
11771;SDS011;12556;55.748;13.194;2022-08-11T12:05:47;7.60;;;1.58;;
11771;SDS011;12556;55.748;13.194;2022-08-11T12:08:16;3.40;;;1.60;;
11771;SDS011;12556;55.748;13.194;2022-08-11T12:10:45;2.03;;;1.42;;
11771;SDS011;12556;55.748;13.194;2022-08-11T12:13:15;3.90;;;1.63;;
11771;SDS011;12556;55.748;13.194;2022-08-11T12:16:01;2.05;;;1.50;;
11771;SDS011;12556;55.748;13.194;2022-08-11T12:18:30;2.40;;;1.40;;
11771;SDS011;12556;55.748;13.194;2022-08-11T12:20:59;2.92;;;1.70;;
11771;SDS011;12556;55.748;13.194;2022-08-11T12:23:27;2.90;;;1.23;;
11771;SDS011;12556;55.748;13.194;2022-08-11T12:26:12;2.00;;;1.15;;
11771;SDS011;12556;55.748;13.194;2022-08-11T12:28:59;1.40;;;1.30;;
11771;SDS011;12556;55.748;13.194;2022-08-11T12:31:29;4.93;;;1.42;;
11771;SDS011;12556;55.748;13.194;2022-08-11T12:34:01;2.85;;;1.42;;
11771;SDS011;12556;55.748;13.194;2022-08-11T12:36:29;2.17;;;1.15;;
11771;SDS011;12556;55.748;13.194;2022-08-11T12:39:00;6.10;;;1.58;;
11771;SDS011;12556;55.748;13.194;2022-08-11T12:41:30;2.97;;;1.35;;
11771;SDS011;12556;55.748;13.194;2022-08-11T12:44:19;4.78;;;1.60;;
11771;SDS011;12556;55.748;13.194;2022-08-11T12:47:07;3.28;;;1.08;;
11771;SDS011;12556;55.748;13.194;2022-08-11T12:49:37;1.38;;;1.10;;
11771;SDS011;12556;55.748;13.194;2022-08-11T12:52:31;3.13;;;1.50;;
11771;SDS011;12556;55.748;13.194;2022-08-11T12:55:04;4.32;;;1.40;;
11771;SDS011;12556;55.748;13.194;2022-08-11T12:57:37;7.05;;;1.50;;
11771;SDS011;12556;55.748;13.194;2022-08-11T13:00:25;3.30;;;1.42;;
11771;SDS011;12556;55.748;13.194;2022-08-11T13:03:12;2.85;;;1.50;;
11771;SDS011;12556;55.748;13.194;2022-08-11T13:05:58;1.52;;;1.42;;
11771;SDS011;12556;55.748;13.194;2022-08-11T13:08:28;3.85;;;1.52;;
11771;SDS011;12556;55.748;13.194;2022-08-11T13:10:58;2.00;;;1.40;;
11771;SDS011;12556;55.748;13.194;2022-08-11T13:13:44;3.22;;;1.70;;
11771;SDS011;12556;55.748;13.194;2022-08-11T13:16:14;2.90;;;1.40;;
11771;SDS011;12556;55.748;13.194;2022-08-11T13:18:42;3.60;;;1.38;;
11771;SDS011;12556;55.748;13.194;2022-08-11T13:21:10;1.98;;;1.65;;
11771;SDS011;12556;55.748;13.194;2022-08-11T13:23:37;4.55;;;1.55;;
11771;SDS011;12556;55.748;13.194;2022-08-11T13:26:06;1.98;;;1.20;;
11771;SDS011;12556;55.748;13.194;2022-08-11T13:28:34;2.75;;;1.52;;
11771;SDS011;12556;55.748;13.194;2022-08-11T13:31:01;1.63;;;1.23;;
11771;SDS011;12556;55.748;13.194;2022-08-11T13:33:41;6.10;;;1.25;;
11771;SDS011;12556;55.748;13.194;2022-08-11T13:36:11;1.85;;;1.40;;
11771;SDS011;12556;55.748;13.194;2022-08-11T13:38:40;2.67;;;1.20;;
11771;SDS011;12556;55.748;13.194;2022-08-11T13:41:09;3.80;;;1.30;;
11771;SDS011;12556;55.748;13.194;2022-08-11T13:43:54;2.33;;;1.02;;
11771;SDS011;12556;55.748;13.194;2022-08-11T13:46:22;2.05;;;1.30;;
11771;SDS011;12556;55.748;13.194;2022-08-11T13:48:51;6.50;;;1.33;;
11771;SDS011;12556;55.748;13.194;2022-08-11T13:51:20;2.05;;;1.20;;
11771;SDS011;12556;55.748;13.194;2022-08-11T13:53:55;4.63;;;1.23;;
11771;SDS011;12556;55.748;13.194;2022-08-11T13:56:24;2.63;;;1.30;;
11771;SDS011;12556;55.748;13.194;2022-08-11T13:58:52;1.17;;;1.08;;
11771;SDS011;12556;55.748;13.194;2022-08-11T14:01:20;3.63;;;1.20;;
11771;SDS011;12556;55.748;13.194;2022-08-11T14:03:53;3.60;;;1.30;;
11771;SDS011;12556;55.748;13.194;2022-08-11T14:06:20;4.28;;;1.40;;
11771;SDS011;12556;55.748;13.194;2022-08-11T14:08:48;1.30;;;1.15;;
11771;SDS011;12556;55.748;13.194;2022-08-11T14:11:18;1.92;;;1.08;;
11771;SDS011;12556;55.748;13.194;2022-08-11T14:14:03;3.70;;;1.08;;
11771;SDS011;12556;55.748;13.194;2022-08-11T14:16:36;2.13;;;1.17;;
11771;SDS011;12556;55.748;13.194;2022-08-11T14:19:10;3.20;;;1.10;;
11771;SDS011;12556;55.748;13.194;2022-08-11T14:21:40;2.13;;;1.17;;
11771;SDS011;12556;55.748;13.194;2022-08-11T14:24:26;1.42;;;1.00;;
11771;SDS011;12556;55.748;13.194;2022-08-11T14:26:54;1.60;;;1.30;;
11771;SDS011;12556;55.748;13.194;2022-08-11T14:29:22;2.47;;;1.08;;
11771;SDS011;12556;55.748;13.194;2022-08-11T14:31:53;3.00;;;1.20;;
11771;SDS011;12556;55.748;13.194;2022-08-11T14:34:23;2.03;;;1.33;;
11771;SDS011;12556;55.748;13.194;2022-08-11T14:36:52;2.60;;;1.48;;
11771;SDS011;12556;55.748;13.194;2022-08-11T14:39:21;2.83;;;1.40;;
11771;SDS011;12556;55.748;13.194;2022-08-11T14:41:51;1.30;;;1.20;;
11771;SDS011;12556;55.748;13.194;2022-08-11T14:44:37;2.15;;;1.20;;
11771;SDS011;12556;55.748;13.194;2022-08-11T14:47:25;10.57;;;1.35;;
11771;SDS011;12556;55.748;13.194;2022-08-11T14:49:55;1.65;;;1.20;;
11771;SDS011;12556;55.748;13.194;2022-08-11T14:52:23;4.55;;;1.30;;
11771;SDS011;12556;55.748;13.194;2022-08-11T14:54:51;5.40;;;1.15;;
11771;SDS011;12556;55.748;13.194;2022-08-11T14:57:37;4.43;;;1.40;;
11771;SDS011;12556;55.748;13.194;2022-08-11T15:00:07;2.63;;;1.30;;
11771;SDS011;12556;55.748;13.194;2022-08-11T15:02:42;5.50;;;1.58;;
11771;SDS011;12556;55.748;13.194;2022-08-11T15:05:29;2.33;;;1.20;;
11771;SDS011;12556;55.748;13.194;2022-08-11T15:07:56;3.00;;;1.48;;
11771;SDS011;12556;55.748;13.194;2022-08-11T15:10:24;1.65;;;1.33;;
11771;SDS011;12556;55.748;13.194;2022-08-11T15:12:52;2.00;;;1.00;;
11771;SDS011;12556;55.748;13.194;2022-08-11T15:15:19;2.13;;;1.38;;
11771;SDS011;12556;55.748;13.194;2022-08-11T15:18:05;2.25;;;1.42;;
11771;SDS011;12556;55.748;13.194;2022-08-11T15:20:36;2.03;;;1.17;;
11771;SDS011;12556;55.748;13.194;2022-08-11T15:23:21;2.03;;;1.23;;
11771;SDS011;12556;55.748;13.194;2022-08-11T15:26:06;0.95;;;0.90;;
11771;SDS011;12556;55.748;13.194;2022-08-11T15:28:38;1.67;;;1.10;;
11771;SDS011;12556;55.748;13.194;2022-08-11T15:31:27;1.75;;;1.20;;
11771;SDS011;12556;55.748;13.194;2022-08-11T15:34:13;3.17;;;1.52;;
11771;SDS011;12556;55.748;13.194;2022-08-11T15:37:03;2.40;;;1.08;;
11771;SDS011;12556;55.748;13.194;2022-08-11T15:39:51;2.75;;;1.75;;
11771;SDS011;12556;55.748;13.194;2022-08-11T15:42:40;4.15;;;1.65;;
11771;SDS011;12556;55.748;13.194;2022-08-11T15:45:30;2.25;;;1.25;;
11771;SDS011;12556;55.748;13.194;2022-08-11T15:48:15;8.85;;;1.73;;
11771;SDS011;12556;55.748;13.194;2022-08-11T15:50:51;3.20;;;1.33;;
11771;SDS011;12556;55.748;13.194;2022-08-11T15:53:24;1.83;;;1.45;;
11771;SDS011;12556;55.748;13.194;2022-08-11T15:55:55;4.28;;;1.50;;
11771;SDS011;12556;55.748;13.194;2022-08-11T15:58:25;3.50;;;1.50;;
11771;SDS011;12556;55.748;13.194;2022-08-11T16:01:14;4.72;;;2.30;;
11771;SDS011;12556;55.748;13.194;2022-08-11T16:04:03;3.60;;;1.85;;
11771;SDS011;12556;55.748;13.194;2022-08-11T16:06:38;2.95;;;1.50;;
11771;SDS011;12556;55.748;13.194;2022-08-11T16:09:19;3.13;;;1.85;;
11771;SDS011;12556;55.748;13.194;2022-08-11T16:11:48;4.05;;;2.38;;
11771;SDS011;12556;55.748;13.194;2022-08-11T16:14:17;8.52;;;1.70;;
11771;SDS011;12556;55.748;13.194;2022-08-11T16:17:05;7.43;;;2.47;;
11771;SDS011;12556;55.748;13.194;2022-08-11T16:19:35;3.03;;;1.55;;